createdAt,value
2023-05-20T00:02:59.181Z,12.70
2023-05-20T00:06:04.393Z,12.80
2023-05-20T00:09:24.412Z,12.80
2023-05-20T00:12:41.875Z,12.90
2023-05-20T00:19:19.572Z,12.90
2023-05-20T00:22:54.212Z,12.90
2023-05-20T00:26:13.794Z,12.90
2023-05-20T00:29:28.891Z,12.90
2023-05-20T00:32:34.101Z,12.90
2023-05-20T00:35:49.587Z,12.90
2023-05-20T00:39:41.458Z,12.90
2023-05-20T00:43:10.594Z,12.80
2023-05-20T00:50:18.845Z,12.80
2023-05-20T00:56:42.259Z,12.70
2023-05-20T00:59:58.394Z,12.60
2023-05-20T01:03:40.336Z,12.70
2023-05-20T01:06:47.299Z,12.60
2023-05-20T01:10:01.643Z,12.60
2023-05-20T01:17:17.863Z,12.60
2023-05-20T01:20:21.273Z,12.50
2023-05-20T01:24:12.593Z,12.50
2023-05-20T01:27:32.855Z,12.50
2023-05-20T01:30:38.933Z,12.40
2023-05-20T01:34:00.587Z,12.40
2023-05-20T01:37:11.768Z,12.50
2023-05-20T01:40:31.498Z,12.40
2023-05-20T01:44:36.960Z,12.40
2023-05-20T01:48:15.606Z,12.40
2023-05-20T01:51:28.505Z,12.40
2023-05-20T02:01:08.319Z,12.20
2023-05-20T02:07:22.207Z,12.20
2023-05-20T02:10:55.761Z,12.20
2023-05-20T02:17:17.078Z,12.20
2023-05-20T02:23:35.324Z,12.10
2023-05-20T02:26:55.683Z,12.10
2023-05-20T02:29:28.370Z,12.00
2023-05-20T02:31:56.825Z,12.00
2023-05-20T02:34:26.086Z,12.00
2023-05-20T02:36:57.491Z,12.00
2023-05-20T02:39:25.789Z,11.90
2023-05-20T02:41:54.124Z,11.80
2023-05-20T02:44:22.486Z,11.70
2023-05-20T02:46:50.913Z,11.70
2023-05-20T02:49:19.303Z,11.50
2023-05-20T03:02:16.720Z,11.50
2023-05-20T03:04:47.408Z,11.30
2023-05-20T03:12:18.199Z,11.20
2023-05-20T03:14:46.528Z,11.00
2023-05-20T03:17:14.816Z,11.00
2023-05-20T03:19:44.171Z,10.90
2023-05-20T03:22:12.481Z,10.90
2023-05-20T03:24:40.807Z,10.90
2023-05-20T03:27:09.185Z,10.90
2023-05-20T03:29:38.974Z,10.80
2023-05-20T03:32:10.609Z,10.80
2023-05-20T03:34:39.454Z,10.70
2023-05-20T03:37:07.816Z,10.70
2023-05-20T03:39:36.239Z,10.70
2023-05-20T03:42:04.846Z,10.60
2023-05-20T03:44:33.128Z,10.60
2023-05-20T03:47:02.880Z,10.60
2023-05-20T03:49:31.350Z,10.60
2023-05-20T03:51:59.775Z,10.50
2023-05-20T03:54:28.173Z,10.40
2023-05-20T03:56:56.779Z,10.30
2023-05-20T03:59:25.396Z,10.30
2023-05-20T04:01:53.745Z,10.30
2023-05-20T04:04:23.615Z,10.30
2023-05-20T04:06:52.029Z,10.30
2023-05-20T04:09:20.337Z,10.40
2023-05-20T04:11:48.717Z,10.50
2023-05-20T04:14:17.057Z,10.50
2023-05-20T04:16:46.034Z,10.60
2023-05-20T04:19:14.481Z,10.60
2023-05-20T04:21:44.753Z,10.60
2023-05-20T04:24:54.192Z,10.60
2023-05-20T04:28:19.595Z,10.60
2023-05-20T04:30:51.006Z,10.80
2023-05-20T04:33:19.415Z,11.00
2023-05-20T04:35:48.578Z,11.10
2023-05-20T04:38:18.410Z,11.30
2023-05-20T04:40:46.893Z,11.50
2023-05-20T04:43:15.648Z,11.60
2023-05-20T04:45:44.053Z,11.70
2023-05-20T04:48:12.435Z,11.80
2023-05-20T04:50:41.981Z,11.90
2023-05-20T04:53:10.353Z,11.90
2023-05-20T04:55:40.088Z,12.00
2023-05-20T04:58:15.060Z,12.00
2023-05-20T05:00:43.766Z,12.00
2023-05-20T05:03:13.591Z,12.00
2023-05-20T05:05:42.429Z,12.00
2023-05-20T05:08:12.678Z,12.10
2023-05-20T05:10:42.670Z,12.20
2023-05-20T05:13:11.187Z,12.30
2023-05-20T05:15:39.608Z,12.40
2023-05-20T05:18:08.055Z,12.30
2023-05-20T05:20:36.552Z,12.30
2023-05-20T05:23:05.022Z,12.30
2023-05-20T05:25:34.094Z,12.40
2023-05-20T05:28:03.897Z,12.60
2023-05-20T05:30:32.390Z,12.80
2023-05-20T05:33:01.017Z,12.90
2023-05-20T05:35:29.622Z,13.20
2023-05-20T05:37:58.078Z,13.40
2023-05-20T05:40:26.573Z,13.50
2023-05-20T05:42:54.944Z,13.40
2023-05-20T05:45:24.763Z,13.50
2023-05-20T05:47:53.216Z,13.60
2023-05-20T05:50:21.717Z,13.80
2023-05-20T05:52:50.126Z,14.10
2023-05-20T05:55:19.311Z,14.30
2023-05-20T05:57:47.700Z,14.40
2023-05-20T06:00:16.620Z,14.50
2023-05-20T06:02:46.622Z,14.50
2023-05-20T06:05:15.132Z,14.50
2023-05-20T06:07:43.461Z,14.50
2023-05-20T06:10:12.383Z,14.60
2023-05-20T06:12:40.737Z,14.70
2023-05-20T06:15:10.220Z,14.70
2023-05-20T06:20:10.401Z,14.80
2023-05-20T06:22:38.914Z,15.10
2023-05-20T06:25:08.273Z,15.20
2023-05-20T06:27:36.681Z,15.30
2023-05-20T06:30:05.649Z,15.50
2023-05-20T06:32:34.054Z,15.50
2023-05-20T06:35:02.651Z,15.60
2023-05-20T06:37:32.389Z,15.80
2023-05-20T06:40:01.102Z,15.90
2023-05-20T06:42:29.460Z,16.00
2023-05-20T06:44:57.965Z,16.00
2023-05-20T06:47:26.416Z,16.00
2023-05-20T06:49:54.862Z,16.10
2023-05-20T06:52:23.170Z,16.10
2023-05-20T06:54:53.010Z,16.10
2023-05-20T06:57:22.480Z,16.20
2023-05-20T06:59:53.114Z,16.10
2023-05-20T07:02:22.455Z,16.20
2023-05-20T07:04:50.909Z,16.20
2023-05-20T07:07:19.419Z,16.40
2023-05-20T07:22:12.440Z,16.60
2023-05-20T07:24:40.866Z,16.90
2023-05-20T07:27:09.667Z,17.00
2023-05-20T07:29:39.812Z,16.90
2023-05-20T07:32:11.600Z,17.00
2023-05-20T07:34:40.085Z,17.10
2023-05-20T07:37:10.174Z,17.20
2023-05-20T07:39:38.621Z,17.20
2023-05-20T07:42:07.261Z,17.30
2023-05-20T07:44:35.669Z,17.20
2023-05-20T07:47:05.574Z,17.20
2023-05-20T07:49:34.066Z,17.40
2023-05-20T07:52:03.125Z,17.50
2023-05-20T07:54:31.792Z,17.50
2023-05-20T07:57:01.085Z,17.70
2023-05-20T08:14:25.350Z,17.80
2023-05-20T08:16:55.014Z,18.30
2023-05-20T08:19:23.709Z,18.20
2023-05-20T08:21:53.456Z,18.30
2023-05-20T08:24:22.004Z,18.50
2023-05-20T08:26:50.307Z,18.30
2023-05-20T08:29:18.692Z,18.30
2023-05-20T08:31:47.056Z,18.40
2023-05-20T08:34:15.624Z,18.50
2023-05-20T08:36:45.279Z,18.60
2023-05-20T08:39:15.294Z,18.40
2023-05-20T08:41:43.822Z,18.70
2023-05-20T08:44:12.622Z,18.70
2023-05-20T08:46:44.145Z,18.90
2023-05-20T08:49:12.775Z,18.90
2023-05-20T08:51:42.998Z,18.90
2023-05-20T08:54:12.985Z,19.10
2023-05-20T08:56:43.222Z,19.00
2023-05-20T08:59:11.621Z,19.00
2023-05-20T09:01:44.475Z,19.10
2023-05-20T09:04:13.076Z,19.20
2023-05-20T09:06:44.954Z,19.20
2023-05-20T09:11:44.027Z,19.50
2023-05-20T09:14:12.449Z,19.30
2023-05-20T09:16:42.023Z,19.20
2023-05-20T09:19:11.384Z,19.40
2023-05-20T09:21:42.192Z,19.40
2023-05-20T09:54:08.547Z,19.80
2023-05-20T09:56:37.936Z,19.90
2023-05-20T09:59:07.033Z,19.80
2023-05-20T10:01:36.824Z,20.00
2023-05-20T10:04:08.158Z,20.00
2023-05-20T10:06:52.221Z,20.20
2023-05-20T10:09:33.757Z,20.20
2023-05-20T10:12:11.407Z,19.90
2023-05-20T10:14:50.384Z,20.20
2023-05-20T10:17:26.488Z,20.40
2023-05-20T10:19:59.730Z,20.30
2023-05-20T10:22:29.855Z,20.20
2023-05-20T10:25:01.274Z,20.00
2023-05-20T10:27:29.680Z,19.70
2023-05-20T10:29:58.702Z,19.60
2023-05-20T10:32:30.044Z,20.00
2023-05-20T10:35:02.199Z,20.10
2023-05-20T10:37:32.297Z,20.50
2023-05-20T10:40:12.205Z,20.70
2023-05-20T10:42:41.276Z,21.00
2023-05-20T10:45:11.149Z,21.30
2023-05-20T10:47:44.065Z,21.00
2023-05-20T10:50:28.773Z,20.20
2023-05-20T10:53:04.340Z,20.00
2023-05-20T10:55:38.621Z,20.20
2023-05-20T10:58:11.251Z,20.30
2023-05-20T11:00:41.040Z,20.60
2023-05-20T11:03:13.297Z,20.80
2023-05-20T11:08:24.597Z,21.20
2023-05-20T11:10:58.309Z,21.40
2023-05-20T11:13:27.239Z,21.70
2023-05-20T11:15:55.767Z,21.70
2023-05-20T11:18:30.273Z,21.90
2023-05-20T11:20:58.756Z,21.60
2023-05-20T11:23:28.443Z,21.30
2023-05-20T11:25:58.478Z,21.60
2023-05-20T11:28:27.354Z,21.40
2023-05-20T11:30:56.448Z,21.40
2023-05-20T11:33:28.377Z,21.40
2023-05-20T11:35:58.002Z,21.60
2023-05-20T11:38:26.691Z,21.50
2023-05-20T11:40:56.625Z,21.00
2023-05-20T11:43:25.694Z,21.10
2023-05-20T11:45:55.889Z,21.50
2023-05-20T11:48:25.979Z,21.70
2023-05-20T11:50:55.959Z,21.70
2023-05-20T11:53:26.293Z,21.80
2023-05-20T11:55:56.669Z,21.80
2023-05-20T11:58:26.298Z,21.40
2023-05-20T12:01:05.111Z,21.60
2023-05-20T12:03:39.265Z,21.90
2023-05-20T12:06:07.946Z,21.80
2023-05-20T12:08:36.288Z,21.70
2023-05-20T12:11:04.753Z,21.70
2023-05-20T12:13:35.066Z,22.10
2023-05-20T12:16:05.834Z,22.10
2023-05-20T12:18:34.368Z,22.00
2023-05-20T12:21:04.169Z,22.30
2023-05-20T12:23:34.381Z,22.00
2023-05-20T12:26:02.926Z,22.20
2023-05-20T12:28:32.248Z,22.20
2023-05-20T12:31:01.007Z,22.20
2023-05-20T12:33:29.462Z,22.40
2023-05-20T12:35:57.921Z,22.70
2023-05-20T12:38:28.176Z,22.40
2023-05-20T12:40:58.931Z,22.40
2023-05-20T12:43:27.252Z,22.30
2023-05-20T12:45:56.050Z,22.60
2023-05-20T12:48:24.575Z,22.80
2023-05-20T12:50:53.007Z,22.80
2023-05-20T12:53:21.428Z,23.00
2023-05-20T12:55:51.275Z,23.00
2023-05-20T12:58:19.683Z,22.80
2023-05-20T13:00:48.107Z,22.80
2023-05-20T13:03:16.664Z,22.60
2023-05-20T13:05:45.140Z,22.40
2023-05-20T13:08:14.911Z,22.40
2023-05-20T13:10:43.485Z,22.50
2023-05-20T13:13:13.930Z,22.20
2023-05-20T13:15:42.362Z,21.90
2023-05-20T13:18:11.179Z,22.20
2023-05-20T13:20:40.606Z,22.40
2023-05-20T13:23:09.324Z,22.60
2023-05-20T13:25:41.079Z,22.80
2023-05-20T13:28:10.345Z,22.50
2023-05-20T13:30:40.140Z,22.50
2023-05-20T13:33:11.107Z,22.80
2023-05-20T13:35:39.534Z,22.80
2023-05-20T13:38:07.905Z,22.90
2023-05-20T13:40:36.534Z,23.10
2023-05-20T13:43:05.096Z,23.00
2023-05-20T13:45:33.524Z,23.10
2023-05-20T13:48:04.534Z,22.80
2023-05-20T13:50:33.038Z,22.40
2023-05-20T13:53:01.554Z,22.30
2023-05-20T13:55:29.940Z,22.90
2023-05-20T13:57:58.261Z,23.00
2023-05-20T14:00:26.730Z,22.80
2023-05-20T14:02:55.107Z,22.40
2023-05-20T14:05:24.958Z,22.40
2023-05-20T14:07:53.311Z,22.70
2023-05-20T14:10:21.935Z,22.50
2023-05-20T14:12:50.365Z,22.60
2023-05-20T14:15:18.810Z,22.90
2023-05-20T14:17:47.285Z,22.90
2023-05-20T14:20:16.027Z,22.80
2023-05-20T14:22:45.727Z,22.30
2023-05-20T14:25:14.268Z,22.00
2023-05-20T14:27:42.965Z,21.70
2023-05-20T14:30:14.646Z,21.70
2023-05-20T14:32:43.055Z,21.90
2023-05-20T14:35:11.629Z,21.50
2023-05-20T14:37:39.985Z,22.00
2023-05-20T14:40:11.199Z,22.60
2023-05-20T14:42:39.555Z,23.00
2023-05-20T14:45:09.181Z,23.00
2023-05-20T14:47:40.247Z,22.90
2023-05-20T14:50:09.115Z,22.80
2023-05-20T14:52:37.502Z,22.90
2023-05-20T14:55:06.629Z,23.20
2023-05-20T14:57:36.332Z,23.70
2023-05-20T15:00:05.546Z,23.60
2023-05-20T15:02:34.079Z,23.20
2023-05-20T15:05:02.583Z,23.30
2023-05-20T15:07:31.524Z,23.40
2023-05-20T15:09:59.837Z,23.00
2023-05-20T15:12:28.347Z,22.60
2023-05-20T15:14:58.099Z,22.00
2023-05-20T15:17:26.620Z,21.90
2023-05-20T15:19:55.081Z,22.10
2023-05-20T15:22:23.406Z,22.10
2023-05-20T15:24:51.816Z,22.00
2023-05-20T15:27:20.214Z,21.90
2023-05-20T15:29:49.667Z,21.60
2023-05-20T15:32:20.130Z,21.40
2023-05-20T15:34:48.632Z,21.40
2023-05-20T15:37:17.236Z,21.50
2023-05-20T15:39:45.683Z,21.50
2023-05-20T15:42:14.033Z,21.40
2023-05-20T15:44:42.394Z,21.50
2023-05-20T15:47:10.879Z,21.50
2023-05-20T15:49:40.710Z,21.50
2023-05-20T15:52:09.291Z,21.30
2023-05-20T15:54:37.758Z,21.10
2023-05-20T15:57:06.580Z,21.10
2023-05-20T15:59:35.086Z,21.20
2023-05-20T16:02:03.511Z,21.40
2023-05-20T16:04:32.556Z,21.40
2023-05-20T16:07:02.611Z,21.30
2023-05-20T16:09:31.157Z,21.10
2023-05-20T16:11:59.680Z,21.00
2023-05-20T16:14:28.054Z,20.90
2023-05-20T16:16:56.394Z,20.90
2023-05-20T16:19:24.897Z,20.80
2023-05-20T16:21:53.289Z,20.70
2023-05-20T16:24:22.986Z,20.70
2023-05-20T16:26:51.748Z,20.70
2023-05-20T16:29:20.197Z,20.70
2023-05-20T16:31:48.653Z,20.80
2023-05-20T16:34:19.472Z,20.70
2023-05-20T16:36:47.823Z,20.60
2023-05-20T16:39:16.569Z,20.40
2023-05-20T16:41:46.464Z,20.40
2023-05-20T16:44:14.800Z,20.40
2023-05-20T16:46:43.354Z,20.30
2023-05-20T16:49:11.849Z,20.30
2023-05-20T16:51:40.273Z,20.30
2023-05-20T16:54:08.891Z,20.40
2023-05-20T16:56:37.445Z,20.30
2023-05-20T16:59:07.369Z,20.30
2023-05-20T17:01:36.906Z,20.30
2023-05-20T17:04:05.650Z,20.20
2023-05-20T17:06:34.391Z,20.10
2023-05-20T17:09:04.616Z,20.10
2023-05-20T17:11:33.144Z,20.10
2023-05-20T17:14:01.760Z,20.20
2023-05-20T17:16:31.819Z,20.30
2023-05-20T17:19:00.264Z,20.40
2023-05-20T17:21:28.760Z,20.30
2023-05-20T17:23:57.160Z,20.10
2023-05-20T17:26:26.022Z,20.00
2023-05-20T17:28:54.512Z,20.10
2023-05-20T17:31:22.951Z,20.10
2023-05-20T17:33:52.826Z,20.20
2023-05-20T17:36:22.612Z,20.30
2023-05-20T17:38:51.191Z,20.30
2023-05-20T17:41:19.684Z,20.30
2023-05-20T17:43:48.017Z,20.10
2023-05-20T17:46:16.427Z,20.10
2023-05-20T17:48:45.769Z,20.10
2023-05-20T17:51:16.933Z,20.00
2023-05-20T17:53:45.909Z,19.90
2023-05-20T17:56:14.873Z,19.80
2023-05-20T17:58:45.117Z,19.70
2023-05-20T18:01:13.573Z,19.60
2023-05-20T18:03:42.097Z,19.60
2023-05-20T18:06:10.760Z,19.60
2023-05-20T18:08:40.476Z,19.50
2023-05-20T18:11:08.896Z,19.40
2023-05-20T18:13:37.295Z,19.40
2023-05-20T18:16:06.264Z,19.30
2023-05-20T18:18:34.723Z,19.30
2023-05-20T18:21:06.045Z,19.20
2023-05-20T18:23:34.520Z,19.20
2023-05-20T18:26:07.004Z,19.20
2023-05-20T18:28:35.536Z,19.20
2023-05-20T18:31:03.944Z,19.20
2023-05-20T18:33:32.539Z,19.20
2023-05-20T18:36:01.356Z,19.10
2023-05-20T18:38:29.795Z,19.00
2023-05-20T18:40:59.612Z,18.90
2023-05-20T18:43:29.393Z,18.70
2023-05-20T18:45:57.991Z,18.60
2023-05-20T18:48:27.385Z,18.50
2023-05-20T18:50:56.136Z,18.50
2023-05-20T18:53:24.586Z,18.40
2023-05-20T18:55:53.040Z,18.40
2023-05-20T18:58:21.429Z,18.30
2023-05-20T19:00:51.230Z,18.20
2023-05-20T19:03:19.754Z,18.20
2023-05-20T19:05:48.273Z,18.20
2023-05-20T19:08:16.876Z,18.10
2023-05-20T19:10:45.308Z,18.10
2023-05-20T19:13:15.191Z,18.00
2023-05-20T19:15:43.757Z,18.00
2023-05-20T19:18:14.208Z,18.00
2023-05-20T19:20:42.660Z,17.90
2023-05-20T19:23:11.200Z,17.80
2023-05-20T19:25:39.612Z,17.70
2023-05-20T19:28:08.120Z,17.70
2023-05-20T19:30:36.750Z,17.70
2023-05-20T19:33:07.370Z,17.60
2023-05-20T19:35:37.358Z,17.50
2023-05-20T19:38:06.925Z,17.30
2023-05-20T19:40:36.198Z,17.20
2023-05-20T19:43:04.621Z,17.10
2023-05-20T19:45:33.716Z,17.10
2023-05-20T19:48:02.332Z,17.10
2023-05-20T19:50:30.892Z,17.00
2023-05-20T19:53:03.065Z,17.00
2023-05-20T19:55:31.823Z,17.00
2023-05-20T19:58:00.197Z,17.00
2023-05-20T20:00:28.611Z,16.90
2023-05-20T20:02:57.804Z,16.90
2023-05-20T20:05:27.029Z,16.90
2023-05-20T20:07:55.588Z,16.80
2023-05-20T20:10:25.406Z,16.80
2023-05-20T20:12:53.828Z,16.70
2023-05-20T20:15:22.310Z,16.70
2023-05-20T20:17:52.494Z,16.60
2023-05-20T20:20:21.517Z,16.50
2023-05-20T20:22:49.947Z,16.50
2023-05-20T20:25:18.683Z,16.50
2023-05-20T20:27:48.606Z,16.60
2023-05-20T20:30:17.310Z,16.60
2023-05-20T20:32:48.317Z,16.60
2023-05-20T20:35:17.200Z,16.70
2023-05-20T20:37:45.613Z,16.70
2023-05-20T20:40:14.265Z,16.70
2023-05-20T20:42:45.060Z,16.80
2023-05-20T20:45:15.274Z,16.80
2023-05-20T20:47:44.692Z,16.80
2023-05-20T20:50:13.214Z,16.90
2023-05-20T20:52:42.920Z,16.90
2023-05-20T20:55:11.764Z,16.90
2023-05-20T20:57:42.114Z,16.90
2023-05-20T21:00:16.569Z,16.90
2023-05-20T21:02:46.633Z,16.80
2023-05-20T21:05:17.008Z,16.80
2023-05-20T21:07:46.502Z,16.70
2023-05-20T21:10:14.864Z,16.60
2023-05-20T21:12:43.263Z,16.50
2023-05-20T21:15:14.954Z,16.50
2023-05-20T21:17:43.481Z,16.40
2023-05-20T21:20:15.226Z,16.40
2023-05-20T21:22:44.855Z,16.20
2023-05-20T21:25:14.240Z,16.10
2023-05-20T21:27:42.692Z,16.00
2023-05-20T21:30:11.953Z,15.80
2023-05-20T21:32:40.442Z,15.80
2023-05-20T21:35:10.076Z,15.70
2023-05-20T21:37:39.829Z,15.60
2023-05-20T21:40:09.398Z,15.50
2023-05-20T21:42:37.942Z,15.40
2023-05-20T21:45:07.502Z,15.30
2023-05-20T21:47:35.888Z,15.20
2023-05-20T21:50:04.462Z,15.10
2023-05-20T21:52:33.126Z,15.00
2023-05-20T21:55:02.868Z,15.00
2023-05-20T21:57:31.256Z,14.90
2023-05-20T21:59:59.632Z,14.80
2023-05-20T22:02:28.144Z,14.80
2023-05-20T22:04:57.784Z,14.70
2023-05-20T22:07:26.249Z,14.60
2023-05-20T22:09:54.674Z,14.60
2023-05-20T22:12:24.488Z,14.50
2023-05-20T22:14:52.893Z,14.40
2023-05-20T22:17:21.889Z,14.30
2023-05-20T22:19:50.815Z,14.30
2023-05-20T22:22:19.237Z,14.20
2023-05-20T22:24:49.912Z,14.10
2023-05-20T22:27:18.297Z,14.00
2023-05-20T22:29:48.062Z,13.90
2023-05-20T22:32:16.479Z,13.90
2023-05-20T22:34:45.314Z,13.80
2023-05-20T22:37:13.761Z,13.80
2023-05-20T22:39:42.151Z,13.70
2023-05-20T22:42:10.619Z,13.70
2023-05-20T22:44:39.256Z,13.70
2023-05-20T22:47:09.095Z,13.70
2023-05-20T22:49:39.477Z,13.70
2023-05-20T22:52:08.675Z,13.70
2023-05-20T22:54:37.203Z,13.60
2023-05-20T22:57:06.015Z,13.60
2023-05-20T22:59:36.678Z,13.40
2023-05-20T23:02:06.854Z,13.40
2023-05-20T23:04:36.629Z,13.50
2023-05-20T23:07:05.709Z,13.40
2023-05-20T23:09:34.191Z,13.40
2023-05-20T23:12:02.607Z,13.40
2023-05-20T23:14:31.525Z,13.40
2023-05-20T23:17:00.029Z,13.40
2023-05-20T23:19:28.542Z,13.40
2023-05-20T23:21:58.395Z,13.40
2023-05-20T23:24:26.941Z,13.40
2023-05-20T23:26:55.300Z,13.30
2023-05-20T23:29:23.634Z,13.30
2023-05-20T23:31:52.027Z,13.20
2023-05-20T23:34:20.397Z,13.20
2023-05-20T23:36:49.989Z,13.10
2023-05-20T23:39:19.914Z,13.10
2023-05-20T23:41:48.418Z,13.00
2023-05-20T23:44:16.864Z,13.00
2023-05-20T23:46:45.386Z,12.90
2023-05-20T23:49:14.070Z,13.00
2023-05-20T23:51:42.420Z,13.00
2023-05-20T23:54:14.858Z,12.90
2023-05-20T23:56:44.568Z,12.90
